Aviation Digital Data Service (ADDS)

Output produced by METARs form (0536 UTC 24 January 2019)
found at http://www.aviationweather.gov/metar/data/
 
METAR text: YBBN 240500Z 05012KT 9999 FEW042 29/19 Q1012 NOSIG
Conditions at: YBBN (BRISBANE INTL AR, AU) observed 0500 UTC 24 January 2019
Temperature: 29.0°C (84°F)
Dewpoint: 19.0°C (66°F) [RH = 55%]
Pressure (altimeter): 29.88 inches Hg (1012.0 mb)
Winds: from the NE (50 degrees) at 14 MPH (12 knots; 6.2 m/s)
Visibility: 6 or more miles (10+ km)
Ceiling: at least 12,000 feet AGL
Clouds: few clouds at 4200 feet AGL
Weather: no significant weather observed at this time

METAR text: YBBN 240430Z 05012KT 9999 FEW042 30/20 Q1012 NOSIG
Conditions at: YBBN (BRISBANE INTL AR, AU) observed 0430 UTC 24 January 2019
Temperature: 30.0°C (86°F)
Dewpoint: 20.0°C (68°F) [RH = 55%]
Pressure (altimeter): 29.88 inches Hg (1012.0 mb)
Winds: from the NE (50 degrees) at 14 MPH (12 knots; 6.2 m/s)
Visibility: 6 or more miles (10+ km)
Ceiling: at least 12,000 feet AGL
Clouds: few clouds at 4200 feet AGL
Weather: no significant weather observed at this time

METAR text: YBBN 240400Z 05014KT 9999 FEW042 30/20 Q1013
Conditions at: YBBN (BRISBANE INTL AR, AU) observed 0400 UTC 24 January 2019
Temperature: 30.0°C (86°F)
Dewpoint: 20.0°C (68°F) [RH = 55%]
Pressure (altimeter): 29.91 inches Hg (1013.0 mb)
Winds: from the NE (50 degrees) at 16 MPH (14 knots; 7.2 m/s)
Visibility: 6 or more miles (10+ km)
Ceiling: at least 12,000 feet AGL
Clouds: few clouds at 4200 feet AGL
Weather: no significant weather observed at this time

METAR text: YBBN 240330Z 04015KT 9999 FEW042 30/20 Q1013 NOSIG
Conditions at: YBBN (BRISBANE INTL AR, AU) observed 0330 UTC 24 January 2019
Temperature: 30.0°C (86°F)
Dewpoint: 20.0°C (68°F) [RH = 55%]
Pressure (altimeter): 29.91 inches Hg (1013.0 mb)
Winds: from the NE (40 degrees) at 17 MPH (15 knots; 7.7 m/s)
Visibility: 6 or more miles (10+ km)
Ceiling: at least 12,000 feet AGL
Clouds: few clouds at 4200 feet AGL
Weather: no significant weather observed at this time

METAR text: YBBN 240300Z 05014KT 9999 FEW042 30/19 Q1013 NOSIG
Conditions at: YBBN (BRISBANE INTL AR, AU) observed 0300 UTC 24 January 2019
Temperature: 30.0°C (86°F)
Dewpoint: 19.0°C (66°F) [RH = 52%]
Pressure (altimeter): 29.91 inches Hg (1013.0 mb)
Winds: from the NE (50 degrees) at 16 MPH (14 knots; 7.2 m/s)
Visibility: 6 or more miles (10+ km)
Ceiling: at least 12,000 feet AGL
Clouds: few clouds at 4200 feet AGL
Weather: no significant weather observed at this time

METAR text: YBBN 240230Z 04013KT 9999 FEW042 30/18 Q1013 NOSIG
Conditions at: YBBN (BRISBANE INTL AR, AU) observed 0230 UTC 24 January 2019
Temperature: 30.0°C (86°F)
Dewpoint: 18.0°C (64°F) [RH = 49%]
Pressure (altimeter): 29.91 inches Hg (1013.0 mb)
Winds: from the NE (40 degrees) at 15 MPH (13 knots; 6.7 m/s)
Visibility: 6 or more miles (10+ km)
Ceiling: at least 12,000 feet AGL
Clouds: few clouds at 4200 feet AGL
Weather: no significant weather observed at this time

METAR text: YBBN 240200Z 04014KT 9999 FEW040 29/18 Q1013
Conditions at: YBBN (BRISBANE INTL AR, AU) observed 0200 UTC 24 January 2019
Temperature: 29.0°C (84°F)
Dewpoint: 18.0°C (64°F) [RH = 52%]
Pressure (altimeter): 29.91 inches Hg (1013.0 mb)
Winds: from the NE (40 degrees) at 16 MPH (14 knots; 7.2 m/s)
Visibility: 6 or more miles (10+ km)
Ceiling: at least 12,000 feet AGL
Clouds: few clouds at 4000 feet AGL
Weather: no significant weather observed at this time

METAR text: YBBN 240130Z 04014KT 9999 FEW040 30/18 Q1013 NOSIG
Conditions at: YBBN (BRISBANE INTL AR, AU) observed 0130 UTC 24 January 2019
Temperature: 30.0°C (86°F)
Dewpoint: 18.0°C (64°F) [RH = 49%]
Pressure (altimeter): 29.91 inches Hg (1013.0 mb)
Winds: from the NE (40 degrees) at 16 MPH (14 knots; 7.2 m/s)
Visibility: 6 or more miles (10+ km)
Ceiling: at least 12,000 feet AGL
Clouds: few clouds at 4000 feet AGL
Weather: no significant weather observed at this time

METAR text: YBBN 240100Z 05013KT 9999 FEW036 30/18 Q1014 NOSIG
Conditions at: YBBN (BRISBANE INTL AR, AU) observed 0100 UTC 24 January 2019
Temperature: 30.0°C (86°F)
Dewpoint: 18.0°C (64°F) [RH = 49%]
Pressure (altimeter): 29.94 inches Hg (1014.0 mb)
Winds: from the NE (50 degrees) at 15 MPH (13 knots; 6.7 m/s)
Visibility: 6 or more miles (10+ km)
Ceiling: at least 12,000 feet AGL
Clouds: few clouds at 3600 feet AGL
Weather: no significant weather observed at this time

METAR text: YBBN 240030Z 04010KT 9999 FEW034 29/20 Q1014 NOSIG
Conditions at: YBBN (BRISBANE INTL AR, AU) observed 0030 UTC 24 January 2019
Temperature: 29.0°C (84°F)
Dewpoint: 20.0°C (68°F) [RH = 58%]
Pressure (altimeter): 29.94 inches Hg (1014.0 mb)
Winds: from the NE (40 degrees) at 12 MPH (10 knots; 5.1 m/s)
Visibility: 6 or more miles (10+ km)
Ceiling: at least 12,000 feet AGL
Clouds: few clouds at 3400 feet AGL
Weather: no significant weather observed at this time

METAR text: YBBN 240000Z 02011KT 9999 FEW030 29/20 Q1014 NOSIG
Conditions at: YBBN (BRISBANE INTL AR, AU) observed 0000 UTC 24 January 2019
Temperature: 29.0°C (84°F)
Dewpoint: 20.0°C (68°F) [RH = 58%]
Pressure (altimeter): 29.94 inches Hg (1014.0 mb)
Winds: from the NNE (20 degrees) at 13 MPH (11 knots; 5.7 m/s)
Visibility: 6 or more miles (10+ km)
Ceiling: at least 12,000 feet AGL
Clouds: few clouds at 3000 feet AGL
Weather: no significant weather observed at this time

METAR text: YBBN 232330Z 02012KT 9999 FEW026 28/20 Q1014 NOSIG
Conditions at: YBBN (BRISBANE INTL AR, AU) observed 2330 UTC 23 January 2019
Temperature: 28.0°C (82°F)
Dewpoint: 20.0°C (68°F) [RH = 62%]
Pressure (altimeter): 29.94 inches Hg (1014.0 mb)
Winds: from the NNE (20 degrees) at 14 MPH (12 knots; 6.2 m/s)
Visibility: 6 or more miles (10+ km)
Ceiling: at least 12,000 feet AGL
Clouds: few clouds at 2600 feet AGL
Weather: no significant weather observed at this time

METAR text: YBBN 232300Z 01014KT 9999 FEW025 28/20 Q1014
Conditions at: YBBN (BRISBANE INTL AR, AU) observed 2300 UTC 23 January 2019
Temperature: 28.0°C (82°F)
Dewpoint: 20.0°C (68°F) [RH = 62%]
Pressure (altimeter): 29.94 inches Hg (1014.0 mb)
Winds: from the N (10 degrees) at 16 MPH (14 knots; 7.2 m/s)
Visibility: 6 or more miles (10+ km)
Ceiling: at least 12,000 feet AGL
Clouds: few clouds at 2500 feet AGL
Weather: no significant weather observed at this time

METAR text: YBBN 232230Z 36015KT 9999 FEW026 28/19 Q1014 NOSIG
Conditions at: YBBN (BRISBANE INTL AR, AU) observed 2230 UTC 23 January 2019
Temperature: 28.0°C (82°F)
Dewpoint: 19.0°C (66°F) [RH = 58%]
Pressure (altimeter): 29.94 inches Hg (1014.0 mb)
Winds: from the N (360 degrees) at 17 MPH (15 knots; 7.7 m/s)
Visibility: 6 or more miles (10+ km)
Ceiling: at least 12,000 feet AGL
Clouds: few clouds at 2600 feet AGL
Weather: no significant weather observed at this time

METAR text: YBBN 232200Z 01011KT 9999 FEW022 SCT048 BKN185 26/19 Q1014
Conditions at: YBBN (BRISBANE INTL AR, AU) observed 2200 UTC 23 January 2019
Temperature: 26.0°C (79°F)
Dewpoint: 19.0°C (66°F) [RH = 65%]
Pressure (altimeter): 29.94 inches Hg (1014.0 mb)
Winds: from the N (10 degrees) at 13 MPH (11 knots; 5.7 m/s)
Visibility: 6 or more miles (10+ km)
Ceiling: 18500 feet AGL
Clouds: few clouds at 2200 feet AGL
scattered clouds at 4800 feet AGL
broken clouds at 18500 feet AGL
Weather: no significant weather observed at this time

METAR text: YBBN 232130Z 36011KT 9999 FEW020 SCT155 BKN185 26/19 Q1014 NOSIG
Conditions at: YBBN (BRISBANE INTL AR, AU) observed 2130 UTC 23 January 2019
Temperature: 26.0°C (79°F)
Dewpoint: 19.0°C (66°F) [RH = 65%]
Pressure (altimeter): 29.94 inches Hg (1014.0 mb)
Winds: from the N (360 degrees) at 13 MPH (11 knots; 5.7 m/s)
Visibility: 6 or more miles (10+ km)
Ceiling: 18500 feet AGL
Clouds: few clouds at 2000 feet AGL
scattered clouds at 15500 feet AGL
broken clouds at 18500 feet AGL
Weather: no significant weather observed at this time

METAR text: YBBN 232100Z 36012KT 9999 FEW020 BKN155 26/19 Q1014 NOSIG
Conditions at: YBBN (BRISBANE INTL AR, AU) observed 2100 UTC 23 January 2019
Temperature: 26.0°C (79°F)
Dewpoint: 19.0°C (66°F) [RH = 65%]
Pressure (altimeter): 29.94 inches Hg (1014.0 mb)
Winds: from the N (360 degrees) at 14 MPH (12 knots; 6.2 m/s)
Visibility: 6 or more miles (10+ km)
Ceiling: 15500 feet AGL
Clouds: few clouds at 2000 feet AGL
broken clouds at 15500 feet AGL
Weather: no significant weather observed at this time

METAR text: YBBN 232030Z 36011KT 9999 FEW020 BKN160 25/20 Q1013 NOSIG
Conditions at: YBBN (BRISBANE INTL AR, AU) observed 2030 UTC 23 January 2019
Temperature: 25.0°C (77°F)
Dewpoint: 20.0°C (68°F) [RH = 74%]
Pressure (altimeter): 29.91 inches Hg (1013.0 mb)
Winds: from the N (360 degrees) at 13 MPH (11 knots; 5.7 m/s)
Visibility: 6 or more miles (10+ km)
Ceiling: 16000 feet AGL
Clouds: few clouds at 2000 feet AGL
broken clouds at 16000 feet AGL
Weather: no significant weather observed at this time

METAR text: YBBN 232000Z 36012KT 9999 FEW020 BKN155 25/20 Q1013 NOSIG
Conditions at: YBBN (BRISBANE INTL AR, AU) observed 2000 UTC 23 January 2019
Temperature: 25.0°C (77°F)
Dewpoint: 20.0°C (68°F) [RH = 74%]
Pressure (altimeter): 29.91 inches Hg (1013.0 mb)
Winds: from the N (360 degrees) at 14 MPH (12 knots; 6.2 m/s)
Visibility: 6 or more miles (10+ km)
Ceiling: 15500 feet AGL
Clouds: few clouds at 2000 feet AGL
broken clouds at 15500 feet AGL
Weather: no significant weather observed at this time

METAR text: YBBN 231930Z 36013KT 9999 FEW020 BKN155 25/20 Q1013 NOSIG
Conditions at: YBBN (BRISBANE INTL AR, AU) observed 1930 UTC 23 January 2019
Temperature: 25.0°C (77°F)
Dewpoint: 20.0°C (68°F) [RH = 74%]
Pressure (altimeter): 29.91 inches Hg (1013.0 mb)
Winds: from the N (360 degrees) at 15 MPH (13 knots; 6.7 m/s)
Visibility: 6 or more miles (10+ km)
Ceiling: 15500 feet AGL
Clouds: few clouds at 2000 feet AGL
broken clouds at 15500 feet AGL
Weather: no significant weather observed at this time

METAR text: YBBN 231900Z 01012KT 9999 FEW020 BKN160 25/20 Q1012
Conditions at: YBBN (BRISBANE INTL AR, AU) observed 1900 UTC 23 January 2019
Temperature: 25.0°C (77°F)
Dewpoint: 20.0°C (68°F) [RH = 74%]
Pressure (altimeter): 29.88 inches Hg (1012.0 mb)
Winds: from the N (10 degrees) at 14 MPH (12 knots; 6.2 m/s)
Visibility: 6 or more miles (10+ km)
Ceiling: 16000 feet AGL
Clouds: few clouds at 2000 feet AGL
broken clouds at 16000 feet AGL
Weather: no significant weather observed at this time

METAR text: YBBN 231830Z 36011KT 9999 FEW020 BKN160 25/20 Q1012 NOSIG
Conditions at: YBBN (BRISBANE INTL AR, AU) observed 1830 UTC 23 January 2019
Temperature: 25.0°C (77°F)
Dewpoint: 20.0°C (68°F) [RH = 74%]
Pressure (altimeter): 29.88 inches Hg (1012.0 mb)
Winds: from the N (360 degrees) at 13 MPH (11 knots; 5.7 m/s)
Visibility: 6 or more miles (10+ km)
Ceiling: 16000 feet AGL
Clouds: few clouds at 2000 feet AGL
broken clouds at 16000 feet AGL
Weather: no significant weather observed at this time

METAR text: YBBN 231800Z 36010KT CAVOK 25/20 Q1012
Conditions at: YBBN (BRISBANE INTL AR, AU) observed 1800 UTC 23 January 2019
Temperature: 25.0°C (77°F)
Dewpoint: 20.0°C (68°F) [RH = 74%]
Pressure (altimeter): 29.88 inches Hg (1012.0 mb)
Winds: from the N (360 degrees) at 12 MPH (10 knots; 5.1 m/s)
Visibility: 6 or more miles (10+ km)
Ceiling: ceiling and visibility are OK
Clouds: unknown
Weather: no significant weather observed at this time

METAR text: YBBN 231730Z 36014KT CAVOK 25/20 Q1011
Conditions at: YBBN (BRISBANE INTL AR, AU) observed 1730 UTC 23 January 2019
Temperature: 25.0°C (77°F)
Dewpoint: 20.0°C (68°F) [RH = 74%]
Pressure (altimeter): 29.85 inches Hg (1011.0 mb)
Winds: from the N (360 degrees) at 16 MPH (14 knots; 7.2 m/s)
Visibility: 6 or more miles (10+ km)
Ceiling: ceiling and visibility are OK
Clouds: unknown
Weather: no significant weather observed at this time

METAR text: YBBN 231700Z 36012KT CAVOK 25/20 Q1011 NOSIG
Conditions at: YBBN (BRISBANE INTL AR, AU) observed 1700 UTC 23 January 2019
Temperature: 25.0°C (77°F)
Dewpoint: 20.0°C (68°F) [RH = 74%]
Pressure (altimeter): 29.85 inches Hg (1011.0 mb)
Winds: from the N (360 degrees) at 14 MPH (12 knots; 6.2 m/s)
Visibility: 6 or more miles (10+ km)
Ceiling: ceiling and visibility are OK
Clouds: unknown
Weather: no significant weather observed at this time

METAR text: YBBN 231630Z 01015KT CAVOK 26/20 Q1011
Conditions at: YBBN (BRISBANE INTL AR, AU) observed 1630 UTC 23 January 2019
Temperature: 26.0°C (79°F)
Dewpoint: 20.0°C (68°F) [RH = 70%]
Pressure (altimeter): 29.85 inches Hg (1011.0 mb)
Winds: from the N (10 degrees) at 17 MPH (15 knots; 7.7 m/s)
Visibility: 6 or more miles (10+ km)
Ceiling: ceiling and visibility are OK
Clouds: unknown
Weather: no significant weather observed at this time

METAR text: YBBN 231600Z 02011KT CAVOK 25/20 Q1011 NOSIG
Conditions at: YBBN (BRISBANE INTL AR, AU) observed 1600 UTC 23 January 2019
Temperature: 25.0°C (77°F)
Dewpoint: 20.0°C (68°F) [RH = 74%]
Pressure (altimeter): 29.85 inches Hg (1011.0 mb)
Winds: from the NNE (20 degrees) at 13 MPH (11 knots; 5.7 m/s)
Visibility: 6 or more miles (10+ km)
Ceiling: ceiling and visibility are OK
Clouds: unknown
Weather: no significant weather observed at this time

METAR text: YBBN 231530Z 36010KT CAVOK 25/20 Q1012 NOSIG
Conditions at: YBBN (BRISBANE INTL AR, AU) observed 1530 UTC 23 January 2019
Temperature: 25.0°C (77°F)
Dewpoint: 20.0°C (68°F) [RH = 74%]
Pressure (altimeter): 29.88 inches Hg (1012.0 mb)
Winds: from the N (360 degrees) at 12 MPH (10 knots; 5.1 m/s)
Visibility: 6 or more miles (10+ km)
Ceiling: ceiling and visibility are OK
Clouds: unknown
Weather: no significant weather observed at this time

METAR text: YBBN 231500Z 36010KT CAVOK 26/20 Q1012
Conditions at: YBBN (BRISBANE INTL AR, AU) observed 1500 UTC 23 January 2019
Temperature: 26.0°C (79°F)
Dewpoint: 20.0°C (68°F) [RH = 70%]
Pressure (altimeter): 29.88 inches Hg (1012.0 mb)
Winds: from the N (360 degrees) at 12 MPH (10 knots; 5.1 m/s)
Visibility: 6 or more miles (10+ km)
Ceiling: ceiling and visibility are OK
Clouds: unknown
Weather: no significant weather observed at this time

METAR text: YBBN 231430Z 36012KT CAVOK 26/20 Q1012
Conditions at: YBBN (BRISBANE INTL AR, AU) observed 1430 UTC 23 January 2019
Temperature: 26.0°C (79°F)
Dewpoint: 20.0°C (68°F) [RH = 70%]
Pressure (altimeter): 29.88 inches Hg (1012.0 mb)
Winds: from the N (360 degrees) at 14 MPH (12 knots; 6.2 m/s)
Visibility: 6 or more miles (10+ km)
Ceiling: ceiling and visibility are OK
Clouds: unknown
Weather: no significant weather observed at this time

METAR text: YBBN 231400Z 36013KT CAVOK 26/20 Q1012
Conditions at: YBBN (BRISBANE INTL AR, AU) observed 1400 UTC 23 January 2019
Temperature: 26.0°C (79°F)
Dewpoint: 20.0°C (68°F) [RH = 70%]
Pressure (altimeter): 29.88 inches Hg (1012.0 mb)
Winds: from the N (360 degrees) at 15 MPH (13 knots; 6.7 m/s)
Visibility: 6 or more miles (10+ km)
Ceiling: ceiling and visibility are OK
Clouds: unknown
Weather: no significant weather observed at this time

METAR text: YBBN 231330Z 36012KT CAVOK 26/20 Q1012 NOSIG
Conditions at: YBBN (BRISBANE INTL AR, AU) observed 1330 UTC 23 January 2019
Temperature: 26.0°C (79°F)
Dewpoint: 20.0°C (68°F) [RH = 70%]
Pressure (altimeter): 29.88 inches Hg (1012.0 mb)
Winds: from the N (360 degrees) at 14 MPH (12 knots; 6.2 m/s)
Visibility: 6 or more miles (10+ km)
Ceiling: ceiling and visibility are OK
Clouds: unknown
Weather: no significant weather observed at this time

METAR text: YBBN 231300Z 36011KT CAVOK 26/20 Q1013
Conditions at: YBBN (BRISBANE INTL AR, AU) observed 1300 UTC 23 January 2019
Temperature: 26.0°C (79°F)
Dewpoint: 20.0°C (68°F) [RH = 70%]
Pressure (altimeter): 29.91 inches Hg (1013.0 mb)
Winds: from the N (360 degrees) at 13 MPH (11 knots; 5.7 m/s)
Visibility: 6 or more miles (10+ km)
Ceiling: ceiling and visibility are OK
Clouds: unknown
Weather: no significant weather observed at this time

METAR text: YBBN 231230Z 36012KT CAVOK 26/20 Q1012 NOSIG
Conditions at: YBBN (BRISBANE INTL AR, AU) observed 1230 UTC 23 January 2019
Temperature: 26.0°C (79°F)
Dewpoint: 20.0°C (68°F) [RH = 70%]
Pressure (altimeter): 29.88 inches Hg (1012.0 mb)
Winds: from the N (360 degrees) at 14 MPH (12 knots; 6.2 m/s)
Visibility: 6 or more miles (10+ km)
Ceiling: ceiling and visibility are OK
Clouds: unknown
Weather: no significant weather observed at this time

METAR text: YBBN 231200Z 36013KT CAVOK 26/20 Q1012
Conditions at: YBBN (BRISBANE INTL AR, AU) observed 1200 UTC 23 January 2019
Temperature: 26.0°C (79°F)
Dewpoint: 20.0°C (68°F) [RH = 70%]
Pressure (altimeter): 29.88 inches Hg (1012.0 mb)
Winds: from the N (360 degrees) at 15 MPH (13 knots; 6.7 m/s)
Visibility: 6 or more miles (10+ km)
Ceiling: ceiling and visibility are OK
Clouds: unknown
Weather: no significant weather observed at this time

METAR text: YBBN 231130Z 36013KT CAVOK 26/21 Q1012 NOSIG
Conditions at: YBBN (BRISBANE INTL AR, AU) observed 1130 UTC 23 January 2019
Temperature: 26.0°C (79°F)
Dewpoint: 21.0°C (70°F) [RH = 74%]
Pressure (altimeter): 29.88 inches Hg (1012.0 mb)
Winds: from the N (360 degrees) at 15 MPH (13 knots; 6.7 m/s)
Visibility: 6 or more miles (10+ km)
Ceiling: ceiling and visibility are OK
Clouds: unknown
Weather: no significant weather observed at this time

METAR text: YBBN 231100Z 36011KT CAVOK 26/21 Q1012 NOSIG
Conditions at: YBBN (BRISBANE INTL AR, AU) observed 1100 UTC 23 January 2019
Temperature: 26.0°C (79°F)
Dewpoint: 21.0°C (70°F) [RH = 74%]
Pressure (altimeter): 29.88 inches Hg (1012.0 mb)
Winds: from the N (360 degrees) at 13 MPH (11 knots; 5.7 m/s)
Visibility: 6 or more miles (10+ km)
Ceiling: ceiling and visibility are OK
Clouds: unknown
Weather: no significant weather observed at this time

METAR text: YBBN 231030Z 36014KT CAVOK 26/20 Q1011 NOSIG
Conditions at: YBBN (BRISBANE INTL AR, AU) observed 1030 UTC 23 January 2019
Temperature: 26.0°C (79°F)
Dewpoint: 20.0°C (68°F) [RH = 70%]
Pressure (altimeter): 29.85 inches Hg (1011.0 mb)
Winds: from the N (360 degrees) at 16 MPH (14 knots; 7.2 m/s)
Visibility: 6 or more miles (10+ km)
Ceiling: ceiling and visibility are OK
Clouds: unknown
Weather: no significant weather observed at this time

METAR text: YBBN 231000Z 01014KT 9999 VCSH NSC 27/20 Q1011 NOSIG
Conditions at: YBBN (BRISBANE INTL AR, AU) observed 1000 UTC 23 January 2019
Temperature: 27.0°C (81°F)
Dewpoint: 20.0°C (68°F) [RH = 66%]
Pressure (altimeter): 29.85 inches Hg (1011.0 mb)
Winds: from the N (10 degrees) at 16 MPH (14 knots; 7.2 m/s)
Visibility: 6 or more miles (10+ km)
Ceiling: at least 12,000 feet AGL
Clouds: sky clear below 12,000 feet AGL
Weather: VCSH  (showers in vicinity)

METAR text: YBBN 230930Z 36017KT 9999 VCSH FEW025 SCT160 BKN280 26/21 Q1011 FM1000 36010KT 9999 SCT020
Conditions at: YBBN (BRISBANE INTL AR, AU) observed 0930 UTC 23 January 2019
Temperature: 26.0°C (79°F)
Dewpoint: 21.0°C (70°F) [RH = 74%]
Pressure (altimeter): 29.85 inches Hg (1011.0 mb)
Winds: from the N (360 degrees) at 20 MPH (17 knots; 8.7 m/s)
Visibility: 6 or more miles (10+ km)
Ceiling: 28000 feet AGL
Clouds: few clouds at 2500 feet AGL
scattered clouds at 16000 feet AGL
broken clouds at 28000 feet AGL
Weather: VCSH  (showers in vicinity)

METAR text: YBBN 230900Z 01017KT 9999 VCSH NSC 26/21 Q1010 FM1000 36010KT 9999 SCT020
Conditions at: YBBN (BRISBANE INTL AR, AU) observed 0900 UTC 23 January 2019
Temperature: 26.0°C (79°F)
Dewpoint: 21.0°C (70°F) [RH = 74%]
Pressure (altimeter): 29.82 inches Hg (1010.0 mb)
Winds: from the N (10 degrees) at 20 MPH (17 knots; 8.7 m/s)
Visibility: 6 or more miles (10+ km)
Ceiling: at least 12,000 feet AGL
Clouds: sky clear below 12,000 feet AGL
Weather: VCSH  (showers in vicinity)

METAR text: YBBN 230830Z 02017KT 9999 FEW040 BKN300 27/21 Q1010 FM1000 36010KT 9999 SCT020
Conditions at: YBBN (BRISBANE INTL AR, AU) observed 0830 UTC 23 January 2019
Temperature: 27.0°C (81°F)
Dewpoint: 21.0°C (70°F) [RH = 70%]
Pressure (altimeter): 29.82 inches Hg (1010.0 mb)
Winds: from the NNE (20 degrees) at 20 MPH (17 knots; 8.7 m/s)
Visibility: 6 or more miles (10+ km)
Ceiling: 30000 feet AGL
Clouds: few clouds at 4000 feet AGL
broken clouds at 30000 feet AGL
Weather: no significant weather observed at this time

METAR text: YBBN 230800Z 01017KT 9999 FEW035 BKN320 27/21 Q1010 FM1000 36010KT 9999 SCT020
Conditions at: YBBN (BRISBANE INTL AR, AU) observed 0800 UTC 23 January 2019
Temperature: 27.0°C (81°F)
Dewpoint: 21.0°C (70°F) [RH = 70%]
Pressure (altimeter): 29.82 inches Hg (1010.0 mb)
Winds: from the N (10 degrees) at 20 MPH (17 knots; 8.7 m/s)
Visibility: 6 or more miles (10+ km)
Ceiling: 32000 feet AGL
Clouds: few clouds at 3500 feet AGL
broken clouds at 32000 feet AGL
Weather: no significant weather observed at this time

METAR text: YBBN 230730Z 02017KT 9999 FEW035 SCT320 27/21 Q1010
Conditions at: YBBN (BRISBANE INTL AR, AU) observed 0730 UTC 23 January 2019
Temperature: 27.0°C (81°F)
Dewpoint: 21.0°C (70°F) [RH = 70%]
Pressure (altimeter): 29.82 inches Hg (1010.0 mb)
Winds: from the NNE (20 degrees) at 20 MPH (17 knots; 8.7 m/s)
Visibility: 6 or more miles (10+ km)
Ceiling: at least 12,000 feet AGL
Clouds: few clouds at 3500 feet AGL
scattered clouds at 32000 feet AGL
Weather: no significant weather observed at this time

METAR text: YBBN 230700Z 02018KT 9999 FEW035 28/21 Q1010 NOSIG
Conditions at: YBBN (BRISBANE INTL AR, AU) observed 0700 UTC 23 January 2019
Temperature: 28.0°C (82°F)
Dewpoint: 21.0°C (70°F) [RH = 66%]
Pressure (altimeter): 29.82 inches Hg (1010.0 mb)
Winds: from the NNE (20 degrees) at 21 MPH (18 knots; 9.3 m/s)
Visibility: 6 or more miles (10+ km)
Ceiling: at least 12,000 feet AGL
Clouds: few clouds at 3500 feet AGL
Weather: no significant weather observed at this time

METAR text: YBBN 230630Z 02019KT 9999 FEW035 28/21 Q1010 NOSIG
Conditions at: YBBN (BRISBANE INTL AR, AU) observed 0630 UTC 23 January 2019
Temperature: 28.0°C (82°F)
Dewpoint: 21.0°C (70°F) [RH = 66%]
Pressure (altimeter): 29.82 inches Hg (1010.0 mb)
Winds: from the NNE (20 degrees) at 22 MPH (19 knots; 9.8 m/s)
Visibility: 6 or more miles (10+ km)
Ceiling: at least 12,000 feet AGL
Clouds: few clouds at 3500 feet AGL
Weather: no significant weather observed at this time

METAR text: YBBN 230600Z 01019KT 9999 FEW035 29/21 Q1010 NOSIG
Conditions at: YBBN (BRISBANE INTL AR, AU) observed 0600 UTC 23 January 2019
Temperature: 29.0°C (84°F)
Dewpoint: 21.0°C (70°F) [RH = 62%]
Pressure (altimeter): 29.82 inches Hg (1010.0 mb)
Winds: from the N (10 degrees) at 22 MPH (19 knots; 9.8 m/s)
Visibility: 6 or more miles (10+ km)
Ceiling: at least 12,000 feet AGL
Clouds: few clouds at 3500 feet AGL
Weather: no significant weather observed at this time

METAR text: YBBN 230530Z 02019KT 9999 FEW030 29/20 Q1010 NOSIG
Conditions at: YBBN (BRISBANE INTL AR, AU) observed 0530 UTC 23 January 2019
Temperature: 29.0°C (84°F)
Dewpoint: 20.0°C (68°F) [RH = 58%]
Pressure (altimeter): 29.82 inches Hg (1010.0 mb)
Winds: from the NNE (20 degrees) at 22 MPH (19 knots; 9.8 m/s)
Visibility: 6 or more miles (10+ km)
Ceiling: at least 12,000 feet AGL
Clouds: few clouds at 3000 feet AGL
Weather: no significant weather observed at this time

METAR text: YBBN 230500Z 02019KT 9999 FEW035 29/21 Q1011
Conditions at: YBBN (BRISBANE INTL AR, AU) observed 0500 UTC 23 January 2019
Temperature: 29.0°C (84°F)
Dewpoint: 21.0°C (70°F) [RH = 62%]
Pressure (altimeter): 29.85 inches Hg (1011.0 mb)
Winds: from the NNE (20 degrees) at 22 MPH (19 knots; 9.8 m/s)
Visibility: 6 or more miles (10+ km)
Ceiling: at least 12,000 feet AGL
Clouds: few clouds at 3500 feet AGL
Weather: no significant weather observed at this time

METAR text: YBBN 230430Z 03017KT 9999 FEW035 30/19 Q1011 NOSIG
Conditions at: YBBN (BRISBANE INTL AR, AU) observed 0430 UTC 23 January 2019
Temperature: 30.0°C (86°F)
Dewpoint: 19.0°C (66°F) [RH = 52%]
Pressure (altimeter): 29.85 inches Hg (1011.0 mb)
Winds: from the NNE (30 degrees) at 20 MPH (17 knots; 8.7 m/s)
Visibility: 6 or more miles (10+ km)
Ceiling: at least 12,000 feet AGL
Clouds: few clouds at 3500 feet AGL
Weather: no significant weather observed at this time

METAR text: YBBN 230400Z 03016KT 9999 FEW035 30/20 Q1011 NOSIG
Conditions at: YBBN (BRISBANE INTL AR, AU) observed 0400 UTC 23 January 2019
Temperature: 30.0°C (86°F)
Dewpoint: 20.0°C (68°F) [RH = 55%]
Pressure (altimeter): 29.85 inches Hg (1011.0 mb)
Winds: from the NNE (30 degrees) at 18 MPH (16 knots; 8.2 m/s)
Visibility: 6 or more miles (10+ km)
Ceiling: at least 12,000 feet AGL
Clouds: few clouds at 3500 feet AGL
Weather: no significant weather observed at this time

METAR text: YBBN 230330Z 03017KT 9999 FEW035 30/21 Q1012 FM0400 01015KT 9999 FEW030
Conditions at: YBBN (BRISBANE INTL AR, AU) observed 0330 UTC 23 January 2019
Temperature: 30.0°C (86°F)
Dewpoint: 21.0°C (70°F) [RH = 59%]
Pressure (altimeter): 29.88 inches Hg (1012.0 mb)
Winds: from the NNE (30 degrees) at 20 MPH (17 knots; 8.7 m/s)
Visibility: 6 or more miles (10+ km)
Ceiling: at least 12,000 feet AGL
Clouds: few clouds at 3500 feet AGL
Weather: no significant weather observed at this time

METAR text: YBBN 230300Z 03016KT 9999 FEW035 SCT320 31/22 Q1012 FM0400 01015KT 9999 FEW030
Conditions at: YBBN (BRISBANE INTL AR, AU) observed 0300 UTC 23 January 2019
Temperature: 31.0°C (88°F)
Dewpoint: 22.0°C (72°F) [RH = 59%]
Pressure (altimeter): 29.88 inches Hg (1012.0 mb)
Winds: from the NNE (30 degrees) at 18 MPH (16 knots; 8.2 m/s)
Visibility: 6 or more miles (10+ km)
Ceiling: at least 12,000 feet AGL
Clouds: few clouds at 3500 feet AGL
scattered clouds at 32000 feet AGL
Weather: no significant weather observed at this time

METAR text: YBBN 230230Z 04014KT 9999 FEW035 SCT320 30/21 Q1013 FM0300 01015KT 9999 FEW030
Conditions at: YBBN (BRISBANE INTL AR, AU) observed 0230 UTC 23 January 2019
Temperature: 30.0°C (86°F)
Dewpoint: 21.0°C (70°F) [RH = 59%]
Pressure (altimeter): 29.91 inches Hg (1013.0 mb)
Winds: from the NE (40 degrees) at 16 MPH (14 knots; 7.2 m/s)
Visibility: 6 or more miles (10+ km)
Ceiling: at least 12,000 feet AGL
Clouds: few clouds at 3500 feet AGL
scattered clouds at 32000 feet AGL
Weather: no significant weather observed at this time

METAR text: YBBN 230200Z 04014KT 9999 FEW035 SCT320 29/20 Q1013 FM0200 01015KT 9999 FEW030
Conditions at: YBBN (BRISBANE INTL AR, AU) observed 0200 UTC 23 January 2019
Temperature: 29.0°C (84°F)
Dewpoint: 20.0°C (68°F) [RH = 58%]
Pressure (altimeter): 29.91 inches Hg (1013.0 mb)
Winds: from the NE (40 degrees) at 16 MPH (14 knots; 7.2 m/s)
Visibility: 6 or more miles (10+ km)
Ceiling: at least 12,000 feet AGL
Clouds: few clouds at 3500 feet AGL
scattered clouds at 32000 feet AGL
Weather: no significant weather observed at this time

METAR text: YBBN 230130Z 04015KT 9999 FEW030 SCT320 30/20 Q1013 FM0200 01015KT 9999 FEW030
Conditions at: YBBN (BRISBANE INTL AR, AU) observed 0130 UTC 23 January 2019
Temperature: 30.0°C (86°F)
Dewpoint: 20.0°C (68°F) [RH = 55%]
Pressure (altimeter): 29.91 inches Hg (1013.0 mb)
Winds: from the NE (40 degrees) at 17 MPH (15 knots; 7.7 m/s)
Visibility: 6 or more miles (10+ km)
Ceiling: at least 12,000 feet AGL
Clouds: few clouds at 3000 feet AGL
scattered clouds at 32000 feet AGL
Weather: no significant weather observed at this time

METAR text: YBBN 230100Z 05012KT 9999 FEW030 SCT320 29/21 Q1014 FM0200 01015KT 9999 FEW030
Conditions at: YBBN (BRISBANE INTL AR, AU) observed 0100 UTC 23 January 2019
Temperature: 29.0°C (84°F)
Dewpoint: 21.0°C (70°F) [RH = 62%]
Pressure (altimeter): 29.94 inches Hg (1014.0 mb)
Winds: from the NE (50 degrees) at 14 MPH (12 knots; 6.2 m/s)
Visibility: 6 or more miles (10+ km)
Ceiling: at least 12,000 feet AGL
Clouds: few clouds at 3000 feet AGL
scattered clouds at 32000 feet AGL
Weather: no significant weather observed at this time

METAR text: YBBN 230030Z 03010KT 9999 FEW030 SCT320 29/21 Q1014 FM0100 01015KT 9999 FEW030
Conditions at: YBBN (BRISBANE INTL AR, AU) observed 0030 UTC 23 January 2019
Temperature: 29.0°C (84°F)
Dewpoint: 21.0°C (70°F) [RH = 62%]
Pressure (altimeter): 29.94 inches Hg (1014.0 mb)
Winds: from the NNE (30 degrees) at 12 MPH (10 knots; 5.1 m/s)
Visibility: 6 or more miles (10+ km)
Ceiling: at least 12,000 feet AGL
Clouds: few clouds at 3000 feet AGL
scattered clouds at 32000 feet AGL
Weather: no significant weather observed at this time

METAR text: YBBN 230000Z 03009KT 9999 FEW030 30/20 Q1014 FM0100 01015KT 9999 FEW030
Conditions at: YBBN (BRISBANE INTL AR, AU) observed 0000 UTC 23 January 2019
Temperature: 30.0°C (86°F)
Dewpoint: 20.0°C (68°F) [RH = 55%]
Pressure (altimeter): 29.94 inches Hg (1014.0 mb)
Winds: from the NNE (30 degrees) at 10 MPH (9 knots; 4.6 m/s)
Visibility: 6 or more miles (10+ km)
Ceiling: at least 12,000 feet AGL
Clouds: few clouds at 3000 feet AGL
Weather: no significant weather observed at this time

METAR text: YBBN 222330Z 36008KT 9999 FEW023 29/19 Q1014 FM0001 01015KT 9999 FEW030
Conditions at: YBBN (BRISBANE INTL AR, AU) observed 2330 UTC 22 January 2019
Temperature: 29.0°C (84°F)
Dewpoint: 19.0°C (66°F) [RH = 55%]
Pressure (altimeter): 29.94 inches Hg (1014.0 mb)
Winds: from the N (360 degrees) at 9 MPH (8 knots; 4.1 m/s)
Visibility: 6 or more miles (10+ km)
Ceiling: at least 12,000 feet AGL
Clouds: few clouds at 2300 feet AGL
Weather: no significant weather observed at this time

METAR text: YBBN 222300Z 01008KT 9999 FEW020 28/21 Q1014 NOSIG
Conditions at: YBBN (BRISBANE INTL AR, AU) observed 2300 UTC 22 January 2019
Temperature: 28.0°C (82°F)
Dewpoint: 21.0°C (70°F) [RH = 66%]
Pressure (altimeter): 29.94 inches Hg (1014.0 mb)
Winds: from the N (10 degrees) at 9 MPH (8 knots; 4.1 m/s)
Visibility: 6 or more miles (10+ km)
Ceiling: at least 12,000 feet AGL
Clouds: few clouds at 2000 feet AGL
Weather: no significant weather observed at this time

METAR text: YBBN 222230Z 35008KT 9999 FEW020 27/21 Q1014 NOSIG
Conditions at: YBBN (BRISBANE INTL AR, AU) observed 2230 UTC 22 January 2019
Temperature: 27.0°C (81°F)
Dewpoint: 21.0°C (70°F) [RH = 70%]
Pressure (altimeter): 29.94 inches Hg (1014.0 mb)
Winds: from the N (350 degrees) at 9 MPH (8 knots; 4.1 m/s)
Visibility: 6 or more miles (10+ km)
Ceiling: at least 12,000 feet AGL
Clouds: few clouds at 2000 feet AGL
Weather: no significant weather observed at this time

METAR text: YBBN 222200Z 35009KT 9999 FEW020 27/21 Q1014 NOSIG
Conditions at: YBBN (BRISBANE INTL AR, AU) observed 2200 UTC 22 January 2019
Temperature: 27.0°C (81°F)
Dewpoint: 21.0°C (70°F) [RH = 70%]
Pressure (altimeter): 29.94 inches Hg (1014.0 mb)
Winds: from the N (350 degrees) at 10 MPH (9 knots; 4.6 m/s)
Visibility: 6 or more miles (10+ km)
Ceiling: at least 12,000 feet AGL
Clouds: few clouds at 2000 feet AGL
Weather: no significant weather observed at this time

METAR text: YBBN 222130Z 33008KT 9999 FEW028 27/21 Q1014 FM2200 36008KT 9999 SCT030
Conditions at: YBBN (BRISBANE INTL AR, AU) observed 2130 UTC 22 January 2019
Temperature: 27.0°C (81°F)
Dewpoint: 21.0°C (70°F) [RH = 70%]
Pressure (altimeter): 29.94 inches Hg (1014.0 mb)
Winds: from the NNW (330 degrees) at 9 MPH (8 knots; 4.1 m/s)
Visibility: 6 or more miles (10+ km)
Ceiling: at least 12,000 feet AGL
Clouds: few clouds at 2800 feet AGL
Weather: no significant weather observed at this time

METAR text: YBBN 222100Z 31007KT 9999 FEW025 26/21 Q1014 FM2200 36008KT 9999 SCT030
Conditions at: YBBN (BRISBANE INTL AR, AU) observed 2100 UTC 22 January 2019
Temperature: 26.0°C (79°F)
Dewpoint: 21.0°C (70°F) [RH = 74%]
Pressure (altimeter): 29.94 inches Hg (1014.0 mb)
Winds: from the NW (310 degrees) at 8 MPH (7 knots; 3.6 m/s)
Visibility: 6 or more miles (10+ km)
Ceiling: at least 12,000 feet AGL
Clouds: few clouds at 2500 feet AGL
Weather: no significant weather observed at this time

METAR text: YBBN 222030Z 28004KT 9999 FEW022 25/21 Q1014 FM2200 36008KT 9999 SCT030
Conditions at: YBBN (BRISBANE INTL AR, AU) observed 2030 UTC 22 January 2019
Temperature: 25.0°C (77°F)
Dewpoint: 21.0°C (70°F) [RH = 79%]
Pressure (altimeter): 29.94 inches Hg (1014.0 mb)
Winds: from the W (280 degrees) at 5 MPH (4 knots; 2.1 m/s)
Visibility: 6 or more miles (10+ km)
Ceiling: at least 12,000 feet AGL
Clouds: few clouds at 2200 feet AGL
Weather: no significant weather observed at this time

METAR text: YBBN 222000Z 27004KT 9999 FEW022 23/21 Q1014 FM2200 36008KT 9999 SCT030
Conditions at: YBBN (BRISBANE INTL AR, AU) observed 2000 UTC 22 January 2019
Temperature: 23.0°C (73°F)
Dewpoint: 21.0°C (70°F) [RH = 89%]
Pressure (altimeter): 29.94 inches Hg (1014.0 mb)
Winds: from the W (270 degrees) at 5 MPH (4 knots; 2.1 m/s)
Visibility: 6 or more miles (10+ km)
Ceiling: at least 12,000 feet AGL
Clouds: few clouds at 2200 feet AGL
Weather: no significant weather observed at this time

METAR text: YBBN 221930Z 25005KT 9999 FEW020 23/21 Q1013 FM2200 36008KT 9999 SCT030
Conditions at: YBBN (BRISBANE INTL AR, AU) observed 1930 UTC 22 January 2019
Temperature: 23.0°C (73°F)
Dewpoint: 21.0°C (70°F) [RH = 89%]
Pressure (altimeter): 29.91 inches Hg (1013.0 mb)
Winds: from the WSW (250 degrees) at 6 MPH (5 knots; 2.6 m/s)
Visibility: 6 or more miles (10+ km)
Ceiling: at least 12,000 feet AGL
Clouds: few clouds at 2000 feet AGL
Weather: no significant weather observed at this time

METAR text: YBBN 221900Z 25005KT 9999 FEW020 23/21 Q1013
Conditions at: YBBN (BRISBANE INTL AR, AU) observed 1900 UTC 22 January 2019
Temperature: 23.0°C (73°F)
Dewpoint: 21.0°C (70°F) [RH = 89%]
Pressure (altimeter): 29.91 inches Hg (1013.0 mb)
Winds: from the WSW (250 degrees) at 6 MPH (5 knots; 2.6 m/s)
Visibility: 6 or more miles (10+ km)
Ceiling: at least 12,000 feet AGL
Clouds: few clouds at 2000 feet AGL
Weather: no significant weather observed at this time

METAR text: YBBN 221830Z 26004KT 9999 FEW020 SCT038 23/21 Q1013 NOSIG
Conditions at: YBBN (BRISBANE INTL AR, AU) observed 1830 UTC 22 January 2019
Temperature: 23.0°C (73°F)
Dewpoint: 21.0°C (70°F) [RH = 89%]
Pressure (altimeter): 29.91 inches Hg (1013.0 mb)
Winds: from the W (260 degrees) at 5 MPH (4 knots; 2.1 m/s)
Visibility: 6 or more miles (10+ km)
Ceiling: at least 12,000 feet AGL
Clouds: few clouds at 2000 feet AGL
scattered clouds at 3800 feet AGL
Weather: no significant weather observed at this time

METAR text: YBBN 221800Z 27004KT 9999 FEW022 23/21 Q1013 NOSIG
Conditions at: YBBN (BRISBANE INTL AR, AU) observed 1800 UTC 22 January 2019
Temperature: 23.0°C (73°F)
Dewpoint: 21.0°C (70°F) [RH = 89%]
Pressure (altimeter): 29.91 inches Hg (1013.0 mb)
Winds: from the W (270 degrees) at 5 MPH (4 knots; 2.1 m/s)
Visibility: 6 or more miles (10+ km)
Ceiling: at least 12,000 feet AGL
Clouds: few clouds at 2200 feet AGL
Weather: no significant weather observed at this time

Forecast for: YBBN (BRISBANE INTL AR, AU)
Text: TAF YBBN 240516Z 2406/2512 03014KT 9999 FEW030
Forecast period: 0600 to 0900 UTC 24 January 2019
Forecast type: FROM: standard forecast or significant change
Winds: from the NNE (30 degrees) at 16 MPH (14 knots; 7.2 m/s)
Visibility: 6 or more miles 10+ km)
Ceiling: at least 12,000 feet AGL
Clouds: few clouds at 3000 feet AGL
Weather: no significant weather forecast for this period
Text: FM240900 02007KT 9999 SCT025
Forecast period: 0900 to 1600 UTC 24 January 2019
Forecast type: FROM: standard forecast or significant change
Winds: from the NNE (20 degrees) at 8 MPH (7 knots; 3.6 m/s)
Visibility: 6 or more miles 10+ km)
Ceiling: at least 12,000 feet AGL
Clouds: scattered clouds at 2500 feet AGL
Weather: no significant weather forecast for this period
Text: FM241600 VRB05KT 9999 -SHRA SCT020 SCT035
Forecast period: 1600 to 2200 UTC 24 January 2019
Forecast type: FROM: standard forecast or significant change
Winds: variable direction winds at 6 MPH (5 knots; 2.6 m/s)
Visibility: 6 or more miles 10+ km)
Ceiling: at least 12,000 feet AGL
Clouds: scattered clouds at 2000 feet AGL
scattered clouds at 3500 feet AGL
Weather: -SHRA  (light rain showers)
Text: FM242200 08006KT 9999 -SHRA SCT030 SCT050
Forecast period: 2200 UTC 24 January 2019 to 0300 UTC 25 January 2019
Forecast type: FROM: standard forecast or significant change
Winds: from the E (80 degrees) at 7 MPH (6 knots; 3.1 m/s)
Visibility: 6 or more miles 10+ km)
Ceiling: at least 12,000 feet AGL
Clouds: scattered clouds at 3000 feet AGL
scattered clouds at 5000 feet AGL
Weather: -SHRA  (light rain showers)
Text: FM250300 06012KT 9999 SCT030
Forecast period: 0300 to 1000 UTC 25 January 2019
Forecast type: FROM: standard forecast or significant change
Winds: from the ENE (60 degrees) at 14 MPH (12 knots; 6.2 m/s)
Visibility: 6 or more miles 10+ km)
Ceiling: at least 12,000 feet AGL
Clouds: scattered clouds at 3000 feet AGL
Weather: no significant weather forecast for this period
Text: FM251000 03007KT 9999 SCT020
Forecast period: 1000 to 1200 UTC 25 January 2019
Forecast type: FROM: standard forecast or significant change
Winds: from the NNE (30 degrees) at 8 MPH (7 knots; 3.6 m/s)
Visibility: 6 or more miles 10+ km)
Ceiling: at least 12,000 feet AGL
Clouds: scattered clouds at 2000 feet AGL
Weather: no significant weather forecast for this period